sensor_id;sensor_type;location;lat;lon;timestamp;temperature;humidity
4207;DHT22;2117;47.972;7.830;2022-11-12T02:32:02;4.90;99.90
4207;DHT22;2117;47.972;7.830;2022-11-12T02:34:28;4.90;99.90
4207;DHT22;2117;47.972;7.830;2022-11-12T02:36:53;4.90;99.90
4207;DHT22;2117;47.972;7.830;2022-11-12T02:39:19;4.90;99.90
4207;DHT22;2117;47.972;7.830;2022-11-12T02:41:45;5.00;99.90
4207;DHT22;2117;47.972;7.830;2022-11-12T02:44:10;5.10;99.90
4207;DHT22;2117;47.972;7.830;2022-11-12T02:46:36;5.20;99.90
4207;DHT22;2117;47.972;7.830;2022-11-12T02:49:01;5.30;99.90
4207;DHT22;2117;47.972;7.830;2022-11-12T02:51:27;5.40;99.90
4207;DHT22;2117;47.972;7.830;2022-11-12T02:53:52;5.50;99.90
4207;DHT22;2117;47.972;7.830;2022-11-12T02:56:18;5.50;99.90
4207;DHT22;2117;47.972;7.830;2022-11-12T02:58:43;5.60;99.90
4207;DHT22;2117;47.972;7.830;2022-11-12T03:01:09;5.60;99.90
4207;DHT22;2117;47.972;7.830;2022-11-12T03:03:35;5.70;99.90
4207;DHT22;2117;47.972;7.830;2022-11-12T03:06:01;5.70;99.90
4207;DHT22;2117;47.972;7.830;2022-11-12T03:08:26;5.70;99.90
4207;DHT22;2117;47.972;7.830;2022-11-12T03:10:52;5.80;99.90
4207;DHT22;2117;47.972;7.830;2022-11-12T03:13:19;5.80;99.90
4207;DHT22;2117;47.972;7.830;2022-11-12T03:15:45;5.80;99.90
4207;DHT22;2117;47.972;7.830;2022-11-12T03:18:11;5.90;99.90
4207;DHT22;2117;47.972;7.830;2022-11-12T03:20:37;5.90;99.90
4207;DHT22;2117;47.972;7.830;2022-11-12T03:23:05;5.90;99.90
4207;DHT22;2117;47.972;7.830;2022-11-12T03:25:31;5.90;99.90
4207;DHT22;2117;47.972;7.830;2022-11-12T03:27:59;6.00;99.90
4207;DHT22;2117;47.972;7.830;2022-11-12T03:30:30;6.10;99.90
4207;DHT22;2117;47.972;7.830;2022-11-12T03:32:56;6.10;99.90
4207;DHT22;2117;47.972;7.830;2022-11-12T03:35:22;6.10;99.90
4207;DHT22;2117;47.972;7.830;2022-11-12T03:37:48;6.10;99.90
4207;DHT22;2117;47.972;7.830;2022-11-12T03:40:15;6.10;99.90
4207;DHT22;2117;47.972;7.830;2022-11-12T03:42:48;6.10;99.90
4207;DHT22;2117;47.972;7.830;2022-11-12T03:45:15;6.10;99.90
4207;DHT22;2117;47.972;7.830;2022-11-12T03:47:42;6.10;99.90
4207;DHT22;2117;47.972;7.830;2022-11-12T03:50:09;6.10;99.90
4207;DHT22;2117;47.972;7.830;2022-11-12T03:52:35;6.10;99.90
4207;DHT22;2117;47.972;7.830;2022-11-12T03:55:00;6.20;99.90
4207;DHT22;2117;47.972;7.830;2022-11-12T03:57:26;6.10;99.90
4207;DHT22;2117;47.972;7.830;2022-11-12T03:59:51;6.10;99.90
4207;DHT22;2117;47.972;7.830;2022-11-12T04:02:17;6.20;99.90
4207;DHT22;2117;47.972;7.830;2022-11-12T04:04:43;6.10;99.90
4207;DHT22;2117;47.972;7.830;2022-11-12T04:07:34;6.10;99.90
4207;DHT22;2117;47.972;7.830;2022-11-12T04:10:18;6.20;99.90
4207;DHT22;2117;47.972;7.830;2022-11-12T04:12:44;6.10;99.90
4207;DHT22;2117;47.972;7.830;2022-11-12T04:15:28;6.10;99.90
4207;DHT22;2117;47.972;7.830;2022-11-12T04:17:53;6.10;99.90
4207;DHT22;2117;47.972;7.830;2022-11-12T04:20:37;6.20;99.90
4207;DHT22;2117;47.972;7.830;2022-11-12T04:23:22;6.20;99.90
4207;DHT22;2117;47.972;7.830;2022-11-12T04:25:47;6.20;99.90
4207;DHT22;2117;47.972;7.830;2022-11-12T04:28:31;6.20;99.90
4207;DHT22;2117;47.972;7.830;2022-11-12T04:30:57;6.20;99.90
4207;DHT22;2117;47.972;7.830;2022-11-12T04:33:22;6.20;99.90
4207;DHT22;2117;47.972;7.830;2022-11-12T04:35:48;6.20;99.90
4207;DHT22;2117;47.972;7.830;2022-11-12T04:38:13;6.20;99.90
4207;DHT22;2117;47.972;7.830;2022-11-12T04:40:39;6.20;99.90
4207;DHT22;2117;47.972;7.830;2022-11-12T04:43:23;6.20;99.90
4207;DHT22;2117;47.972;7.830;2022-11-12T04:46:07;6.20;99.90
4207;DHT22;2117;47.972;7.830;2022-11-12T04:48:32;6.20;99.90
4207;DHT22;2117;47.972;7.830;2022-11-12T04:51:00;6.10;99.90
4207;DHT22;2117;47.972;7.830;2022-11-12T04:53:29;6.20;99.90
4207;DHT22;2117;47.972;7.830;2022-11-12T04:55:56;6.10;99.90
4207;DHT22;2117;47.972;7.830;2022-11-12T04:58:23;6.10;99.90
4207;DHT22;2117;47.972;7.830;2022-11-12T05:00:49;6.10;99.90
4207;DHT22;2117;47.972;7.830;2022-11-12T05:03:16;6.00;99.90
4207;DHT22;2117;47.972;7.830;2022-11-12T05:05:42;6.00;99.90
4207;DHT22;2117;47.972;7.830;2022-11-12T05:08:07;6.00;99.90
4207;DHT22;2117;47.972;7.830;2022-11-12T05:10:33;6.00;99.90
4207;DHT22;2117;47.972;7.830;2022-11-12T05:12:59;6.00;99.90
4207;DHT22;2117;47.972;7.830;2022-11-12T05:15:24;6.00;99.90
4207;DHT22;2117;47.972;7.830;2022-11-12T05:17:50;6.00;99.90
4207;DHT22;2117;47.972;7.830;2022-11-12T05:20:16;6.00;99.90
4207;DHT22;2117;47.972;7.830;2022-11-12T05:22:42;5.90;99.90
4207;DHT22;2117;47.972;7.830;2022-11-12T05:25:08;6.00;99.90
4207;DHT22;2117;47.972;7.830;2022-11-12T05:27:33;5.90;99.90
4207;DHT22;2117;47.972;7.830;2022-11-12T05:29:59;5.90;99.90
4207;DHT22;2117;47.972;7.830;2022-11-12T05:32:25;5.90;99.90
4207;DHT22;2117;47.972;7.830;2022-11-12T05:34:51;5.90;99.90
4207;DHT22;2117;47.972;7.830;2022-11-12T05:37:17;5.90;99.90
4207;DHT22;2117;47.972;7.830;2022-11-12T05:39:43;5.90;99.90
4207;DHT22;2117;47.972;7.830;2022-11-12T05:42:08;5.90;99.90
4207;DHT22;2117;47.972;7.830;2022-11-12T05:44:34;5.90;99.90
4207;DHT22;2117;47.972;7.830;2022-11-12T05:47:00;5.90;99.90
4207;DHT22;2117;47.972;7.830;2022-11-12T05:49:25;6.00;99.90
4207;DHT22;2117;47.972;7.830;2022-11-12T05:51:51;5.90;99.90
4207;DHT22;2117;47.972;7.830;2022-11-12T05:54:17;6.00;99.90
4207;DHT22;2117;47.972;7.830;2022-11-12T05:56:43;6.00;99.90
4207;DHT22;2117;47.972;7.830;2022-11-12T05:59:10;6.00;99.90
4207;DHT22;2117;47.972;7.830;2022-11-12T06:01:37;6.00;99.90
4207;DHT22;2117;47.972;7.830;2022-11-12T06:04:09;6.00;99.90
4207;DHT22;2117;47.972;7.830;2022-11-12T06:06:35;5.90;99.90
4207;DHT22;2117;47.972;7.830;2022-11-12T06:09:01;5.90;99.90
4207;DHT22;2117;47.972;7.830;2022-11-12T06:11:26;5.90;99.90
4207;DHT22;2117;47.972;7.830;2022-11-12T06:13:52;5.80;99.90
4207;DHT22;2117;47.972;7.830;2022-11-12T06:16:17;5.80;99.90
4207;DHT22;2117;47.972;7.830;2022-11-12T06:18:43;5.80;99.90
4207;DHT22;2117;47.972;7.830;2022-11-12T06:21:10;5.70;99.90
4207;DHT22;2117;47.972;7.830;2022-11-12T06:23:47;5.70;99.90
4207;DHT22;2117;47.972;7.830;2022-11-12T06:26:13;5.60;99.90
4207;DHT22;2117;47.972;7.830;2022-11-12T06:28:38;5.50;99.90
4207;DHT22;2117;47.972;7.830;2022-11-12T06:31:04;5.40;99.90
4207;DHT22;2117;47.972;7.830;2022-11-12T06:33:29;5.30;99.90
4207;DHT22;2117;47.972;7.830;2022-11-12T06:35:59;5.30;99.90
4207;DHT22;2117;47.972;7.830;2022-11-12T06:38:28;5.30;99.90
4207;DHT22;2117;47.972;7.830;2022-11-12T06:40:54;5.30;99.90
4207;DHT22;2117;47.972;7.830;2022-11-12T06:43:20;5.30;99.90
4207;DHT22;2117;47.972;7.830;2022-11-12T06:45:46;5.20;99.90
4207;DHT22;2117;47.972;7.830;2022-11-12T06:48:11;5.20;99.90
4207;DHT22;2117;47.972;7.830;2022-11-12T06:50:37;5.10;99.90
4207;DHT22;2117;47.972;7.830;2022-11-12T06:53:02;5.00;99.90
4207;DHT22;2117;47.972;7.830;2022-11-12T06:55:28;5.00;99.90
4207;DHT22;2117;47.972;7.830;2022-11-12T06:57:53;5.00;99.90
4207;DHT22;2117;47.972;7.830;2022-11-12T07:00:19;5.00;99.90
4207;DHT22;2117;47.972;7.830;2022-11-12T07:02:45;5.00;99.90
4207;DHT22;2117;47.972;7.830;2022-11-12T07:05:10;4.90;99.90
4207;DHT22;2117;47.972;7.830;2022-11-12T07:07:36;5.00;99.90
4207;DHT22;2117;47.972;7.830;2022-11-12T07:10:02;5.00;99.90
4207;DHT22;2117;47.972;7.830;2022-11-12T07:12:28;5.00;99.90
4207;DHT22;2117;47.972;7.830;2022-11-12T07:14:53;5.10;99.90
4207;DHT22;2117;47.972;7.830;2022-11-12T07:17:19;5.10;99.90
4207;DHT22;2117;47.972;7.830;2022-11-12T07:19:45;5.20;99.90
4207;DHT22;2117;47.972;7.830;2022-11-12T07:22:10;5.20;99.90
4207;DHT22;2117;47.972;7.830;2022-11-12T07:24:36;5.20;99.90
4207;DHT22;2117;47.972;7.830;2022-11-12T07:27:03;5.30;99.90
4207;DHT22;2117;47.972;7.830;2022-11-12T07:29:28;5.30;99.90
4207;DHT22;2117;47.972;7.830;2022-11-12T07:31:54;5.30;99.90
4207;DHT22;2117;47.972;7.830;2022-11-12T07:34:19;5.30;99.90
4207;DHT22;2117;47.972;7.830;2022-11-12T07:36:45;5.40;99.90
4207;DHT22;2117;47.972;7.830;2022-11-12T07:39:11;5.40;99.90
4207;DHT22;2117;47.972;7.830;2022-11-12T07:41:37;5.40;99.90
4207;DHT22;2117;47.972;7.830;2022-11-12T07:44:03;5.30;99.90
4207;DHT22;2117;47.972;7.830;2022-11-12T07:46:28;5.30;99.90
4207;DHT22;2117;47.972;7.830;2022-11-12T07:48:54;5.40;99.90
4207;DHT22;2117;47.972;7.830;2022-11-12T07:51:22;5.40;99.90
4207;DHT22;2117;47.972;7.830;2022-11-12T07:53:49;5.40;99.90
4207;DHT22;2117;47.972;7.830;2022-11-12T07:56:20;5.50;99.90
4207;DHT22;2117;47.972;7.830;2022-11-12T07:58:46;5.50;99.90
4207;DHT22;2117;47.972;7.830;2022-11-12T08:01:28;5.50;99.90
4207;DHT22;2117;47.972;7.830;2022-11-12T08:03:55;5.50;99.90
4207;DHT22;2117;47.972;7.830;2022-11-12T08:06:21;5.60;99.90
4207;DHT22;2117;47.972;7.830;2022-11-12T08:08:51;5.50;99.90
4207;DHT22;2117;47.972;7.830;2022-11-12T08:11:17;5.60;99.90
4207;DHT22;2117;47.972;7.830;2022-11-12T08:13:42;5.60;99.90
4207;DHT22;2117;47.972;7.830;2022-11-12T08:16:08;5.80;99.90
4207;DHT22;2117;47.972;7.830;2022-11-12T08:18:34;5.90;99.90
4207;DHT22;2117;47.972;7.830;2022-11-12T08:21:04;5.90;99.90
4207;DHT22;2117;47.972;7.830;2022-11-12T08:23:30;5.90;99.90
4207;DHT22;2117;47.972;7.830;2022-11-12T08:26:00;5.90;99.90
4207;DHT22;2117;47.972;7.830;2022-11-12T08:28:27;5.90;99.90
4207;DHT22;2117;47.972;7.830;2022-11-12T08:30:54;6.10;99.90
4207;DHT22;2117;47.972;7.830;2022-11-12T08:33:19;6.20;99.90
4207;DHT22;2117;47.972;7.830;2022-11-12T08:35:45;6.20;99.90
4207;DHT22;2117;47.972;7.830;2022-11-12T08:38:10;6.20;99.90
4207;DHT22;2117;47.972;7.830;2022-11-12T08:40:38;6.30;99.90
4207;DHT22;2117;47.972;7.830;2022-11-12T08:43:09;6.40;99.90
4207;DHT22;2117;47.972;7.830;2022-11-12T08:45:36;6.40;99.90
4207;DHT22;2117;47.972;7.830;2022-11-12T08:48:09;6.40;99.90
4207;DHT22;2117;47.972;7.830;2022-11-12T08:50:36;6.50;99.90
4207;DHT22;2117;47.972;7.830;2022-11-12T08:53:03;6.50;99.90
4207;DHT22;2117;47.972;7.830;2022-11-12T08:55:30;6.60;99.90
4207;DHT22;2117;47.972;7.830;2022-11-12T08:57:56;6.60;99.90
4207;DHT22;2117;47.972;7.830;2022-11-12T09:00:30;6.50;99.90
4207;DHT22;2117;47.972;7.830;2022-11-12T09:02:59;6.50;99.90
4207;DHT22;2117;47.972;7.830;2022-11-12T09:05:25;6.50;99.90
4207;DHT22;2117;47.972;7.830;2022-11-12T09:08:01;6.60;99.90
4207;DHT22;2117;47.972;7.830;2022-11-12T09:10:27;6.70;99.90
4207;DHT22;2117;47.972;7.830;2022-11-12T09:12:53;6.80;99.90
4207;DHT22;2117;47.972;7.830;2022-11-12T09:15:20;6.80;99.90
4207;DHT22;2117;47.972;7.830;2022-11-12T09:17:46;6.80;99.90
4207;DHT22;2117;47.972;7.830;2022-11-12T09:20:12;6.70;99.90
4207;DHT22;2117;47.972;7.830;2022-11-12T09:22:40;6.70;99.90
4207;DHT22;2117;47.972;7.830;2022-11-12T09:25:06;6.70;99.90
4207;DHT22;2117;47.972;7.830;2022-11-12T09:27:32;6.80;99.90
4207;DHT22;2117;47.972;7.830;2022-11-12T09:29:57;6.70;99.90
4207;DHT22;2117;47.972;7.830;2022-11-12T09:32:23;6.60;99.90
4207;DHT22;2117;47.972;7.830;2022-11-12T09:34:48;6.60;99.90
4207;DHT22;2117;47.972;7.830;2022-11-12T09:37:14;6.70;99.90
4207;DHT22;2117;47.972;7.830;2022-11-12T09:39:39;6.70;99.90
4207;DHT22;2117;47.972;7.830;2022-11-12T09:42:07;6.90;99.90
4207;DHT22;2117;47.972;7.830;2022-11-12T09:44:35;6.90;99.90
4207;DHT22;2117;47.972;7.830;2022-11-12T09:47:08;7.00;99.90
4207;DHT22;2117;47.972;7.830;2022-11-12T09:49:44;7.20;99.90
4207;DHT22;2117;47.972;7.830;2022-11-12T09:52:18;7.30;99.90
4207;DHT22;2117;47.972;7.830;2022-11-12T09:54:49;7.30;99.90
4207;DHT22;2117;47.972;7.830;2022-11-12T09:57:16;7.40;99.90
4207;DHT22;2117;47.972;7.830;2022-11-12T09:59:42;7.30;99.90
4207;DHT22;2117;47.972;7.830;2022-11-12T10:02:51;7.30;99.90
4207;DHT22;2117;47.972;7.830;2022-11-12T10:14:07;7.70;99.90
4207;DHT22;2117;47.972;7.830;2022-11-12T10:17:03;7.80;99.90
4207;DHT22;2117;47.972;7.830;2022-11-12T10:22:34;7.70;99.90
4207;DHT22;2117;47.972;7.830;2022-11-12T10:25:17;7.60;99.90
4207;DHT22;2117;47.972;7.830;2022-11-12T10:27:43;7.70;99.90
4207;DHT22;2117;47.972;7.830;2022-11-12T10:30:20;7.80;99.90
4207;DHT22;2117;47.972;7.830;2022-11-12T10:32:47;7.90;99.90
4207;DHT22;2117;47.972;7.830;2022-11-12T10:35:19;8.00;99.90
4207;DHT22;2117;47.972;7.830;2022-11-12T10:42:58;8.10;99.90
4207;DHT22;2117;47.972;7.830;2022-11-12T10:45:24;8.10;99.90
4207;DHT22;2117;47.972;7.830;2022-11-12T10:47:50;8.20;99.90
4207;DHT22;2117;47.972;7.830;2022-11-12T10:50:33;8.30;99.90
4207;DHT22;2117;47.972;7.830;2022-11-12T10:53:01;8.30;99.90
4207;DHT22;2117;47.972;7.830;2022-11-12T10:55:32;8.30;99.90
4207;DHT22;2117;47.972;7.830;2022-11-12T11:00:28;8.40;99.90
4207;DHT22;2117;47.972;7.830;2022-11-12T11:02:54;8.40;99.90
4207;DHT22;2117;47.972;7.830;2022-11-12T11:08:00;8.50;99.90
4207;DHT22;2117;47.972;7.830;2022-11-12T11:10:31;8.70;99.90
4207;DHT22;2117;47.972;7.830;2022-11-12T11:13:20;8.70;99.90
4207;DHT22;2117;47.972;7.830;2022-11-12T11:16:01;8.70;99.90
4207;DHT22;2117;47.972;7.830;2022-11-12T11:18:32;8.80;99.90
4207;DHT22;2117;47.972;7.830;2022-11-12T11:22:05;8.80;99.90
4207;DHT22;2117;47.972;7.830;2022-11-12T11:24:14;8.90;99.90
4207;DHT22;2117;47.972;7.830;2022-11-12T11:29:20;8.90;99.90
4207;DHT22;2117;47.972;7.830;2022-11-12T11:32:10;9.00;99.90
4207;DHT22;2117;47.972;7.830;2022-11-12T11:40:13;9.10;99.90
4207;DHT22;2117;47.972;7.830;2022-11-12T11:48:43;9.10;99.90
4207;DHT22;2117;47.972;7.830;2022-11-12T11:56:41;9.10;99.90
4207;DHT22;2117;47.972;7.830;2022-11-12T12:04:23;9.10;99.90
4207;DHT22;2117;47.972;7.830;2022-11-12T12:09:49;9.20;99.90
4207;DHT22;2117;47.972;7.830;2022-11-12T12:12:21;9.40;99.90
4207;DHT22;2117;47.972;7.830;2022-11-12T12:18:05;9.40;99.90
4207;DHT22;2117;47.972;7.830;2022-11-12T12:26:43;9.10;99.90
4207;DHT22;2117;47.972;7.830;2022-11-12T12:32:09;9.20;99.90
4207;DHT22;2117;47.972;7.830;2022-11-12T12:34:40;9.10;99.90
4207;DHT22;2117;47.972;7.830;2022-11-12T12:37:35;9.20;99.90
4207;DHT22;2117;47.972;7.830;2022-11-12T12:40:23;9.20;99.90
4207;DHT22;2117;47.972;7.830;2022-11-12T12:46:09;9.20;99.90
4207;DHT22;2117;47.972;7.830;2022-11-12T12:48:42;9.20;99.90
4207;DHT22;2117;47.972;7.830;2022-11-12T12:51:08;9.20;99.90
4207;DHT22;2117;47.972;7.830;2022-11-12T12:53:34;9.20;99.90
4207;DHT22;2117;47.972;7.830;2022-11-12T12:56:03;9.20;99.90
4207;DHT22;2117;47.972;7.830;2022-11-12T12:58:40;9.30;99.90
4207;DHT22;2117;47.972;7.830;2022-11-12T13:04:06;9.40;99.90
4207;DHT22;2117;47.972;7.830;2022-11-12T13:32:52;9.40;99.90
4207;DHT22;2117;47.972;7.830;2022-11-12T13:35:24;9.50;99.90
4207;DHT22;2117;47.972;7.830;2022-11-12T13:38:03;9.50;99.90
4207;DHT22;2117;47.972;7.830;2022-11-12T13:41:15;9.50;99.90
4207;DHT22;2117;47.972;7.830;2022-11-12T13:43:43;9.40;99.90
4207;DHT22;2117;47.972;7.830;2022-11-12T13:46:24;9.20;99.90
4207;DHT22;2117;47.972;7.830;2022-11-12T13:49:05;9.10;99.90
4207;DHT22;2117;47.972;7.830;2022-11-12T13:54:29;9.10;99.90
4207;DHT22;2117;47.972;7.830;2022-11-12T13:56:55;9.00;99.90
4207;DHT22;2117;47.972;7.830;2022-11-12T13:59:24;9.00;99.90
4207;DHT22;2117;47.972;7.830;2022-11-12T14:01:50;9.10;99.90
4207;DHT22;2117;47.972;7.830;2022-11-12T14:04:18;9.10;99.90
4207;DHT22;2117;47.972;7.830;2022-11-12T14:06:51;9.10;99.90
4207;DHT22;2117;47.972;7.830;2022-11-12T14:12:07;9.10;99.90
4207;DHT22;2117;47.972;7.830;2022-11-12T14:20:35;9.00;99.90
4207;DHT22;2117;47.972;7.830;2022-11-12T14:23:07;9.10;99.90
4207;DHT22;2117;47.972;7.830;2022-11-12T14:25:45;9.10;99.90
4207;DHT22;2117;47.972;7.830;2022-11-12T14:28:27;9.00;99.90
4207;DHT22;2117;47.972;7.830;2022-11-12T14:30:53;9.00;99.90
4207;DHT22;2117;47.972;7.830;2022-11-12T14:33:22;9.00;99.90
4207;DHT22;2117;47.972;7.830;2022-11-12T14:35:59;9.00;99.90
4207;DHT22;2117;47.972;7.830;2022-11-12T14:38:36;9.00;99.90
4207;DHT22;2117;47.972;7.830;2022-11-12T14:41:15;9.00;99.90
4207;DHT22;2117;47.972;7.830;2022-11-12T14:43:44;8.90;99.90
4207;DHT22;2117;47.972;7.830;2022-11-12T14:46:37;8.90;99.90
4207;DHT22;2117;47.972;7.830;2022-11-12T14:49:11;8.90;99.90
4207;DHT22;2117;47.972;7.830;2022-11-12T14:51:46;8.90;99.90
4207;DHT22;2117;47.972;7.830;2022-11-12T14:54:17;8.90;99.90
4207;DHT22;2117;47.972;7.830;2022-11-12T14:56:47;8.90;99.90
4207;DHT22;2117;47.972;7.830;2022-11-12T14:59:14;8.90;99.90
4207;DHT22;2117;47.972;7.830;2022-11-12T15:02:05;9.00;99.90
4207;DHT22;2117;47.972;7.830;2022-11-12T15:04:43;9.00;99.90
4207;DHT22;2117;47.972;7.830;2022-11-12T15:09:52;9.00;99.90
4207;DHT22;2117;47.972;7.830;2022-11-12T15:12:24;8.90;99.90
4207;DHT22;2117;47.972;7.830;2022-11-12T15:14:51;8.90;99.90
4207;DHT22;2117;47.972;7.830;2022-11-12T15:17:30;8.80;99.90
4207;DHT22;2117;47.972;7.830;2022-11-12T15:20:18;8.80;99.90
4207;DHT22;2117;47.972;7.830;2022-11-12T15:22:51;8.80;99.90
4207;DHT22;2117;47.972;7.830;2022-11-12T15:25:28;8.80;99.90
4207;DHT22;2117;47.972;7.830;2022-11-12T15:27:54;8.80;99.90
4207;DHT22;2117;47.972;7.830;2022-11-12T15:30:25;8.70;99.90
4207;DHT22;2117;47.972;7.830;2022-11-12T15:35:39;8.70;99.90
4207;DHT22;2117;47.972;7.830;2022-11-12T15:38:16;8.70;99.90
4207;DHT22;2117;47.972;7.830;2022-11-12T15:40:45;8.70;99.90
4207;DHT22;2117;47.972;7.830;2022-11-12T15:43:33;8.70;99.90
4207;DHT22;2117;47.972;7.830;2022-11-12T15:45:59;8.70;99.90
4207;DHT22;2117;47.972;7.830;2022-11-12T15:48:25;8.60;99.90
4207;DHT22;2117;47.972;7.830;2022-11-12T15:50:51;8.60;99.90
4207;DHT22;2117;47.972;7.830;2022-11-12T15:53:16;8.50;99.90
4207;DHT22;2117;47.972;7.830;2022-11-12T15:55:43;8.50;99.90
4207;DHT22;2117;47.972;7.830;2022-11-12T15:58:30;8.50;99.90
4207;DHT22;2117;47.972;7.830;2022-11-12T16:00:57;8.50;99.90
4207;DHT22;2117;47.972;7.830;2022-11-12T16:03:22;8.50;99.90
4207;DHT22;2117;47.972;7.830;2022-11-12T16:05:48;8.50;99.90
4207;DHT22;2117;47.972;7.830;2022-11-12T16:08:14;8.50;99.90
4207;DHT22;2117;47.972;7.830;2022-11-12T16:10:41;8.50;99.90
4207;DHT22;2117;47.972;7.830;2022-11-12T16:13:18;8.50;99.90
4207;DHT22;2117;47.972;7.830;2022-11-12T16:15:45;8.50;99.90
4207;DHT22;2117;47.972;7.830;2022-11-12T16:18:10;8.50;99.90
4207;DHT22;2117;47.972;7.830;2022-11-12T16:20:37;8.40;99.90
4207;DHT22;2117;47.972;7.830;2022-11-12T16:23:02;8.30;99.90
4207;DHT22;2117;47.972;7.830;2022-11-12T16:25:31;8.40;99.90
4207;DHT22;2117;47.972;7.830;2022-11-12T16:27:57;8.40;99.90
4207;DHT22;2117;47.972;7.830;2022-11-12T16:30:26;8.30;99.90
4207;DHT22;2117;47.972;7.830;2022-11-12T16:32:52;8.40;99.90
4207;DHT22;2117;47.972;7.830;2022-11-12T16:35:18;8.30;99.90
4207;DHT22;2117;47.972;7.830;2022-11-12T16:37:45;8.40;99.90
4207;DHT22;2117;47.972;7.830;2022-11-12T16:40:17;8.30;99.90
4207;DHT22;2117;47.972;7.830;2022-11-12T16:42:43;8.40;99.90
4207;DHT22;2117;47.972;7.830;2022-11-12T16:45:13;8.40;99.90
4207;DHT22;2117;47.972;7.830;2022-11-12T16:47:43;8.40;99.90
4207;DHT22;2117;47.972;7.830;2022-11-12T16:50:11;8.50;99.90
4207;DHT22;2117;47.972;7.830;2022-11-12T16:52:36;8.50;99.90
4207;DHT22;2117;47.972;7.830;2022-11-12T16:55:02;8.40;99.90
4207;DHT22;2117;47.972;7.830;2022-11-12T16:57:28;8.40;99.90
4207;DHT22;2117;47.972;7.830;2022-11-12T16:59:54;8.40;99.90
4207;DHT22;2117;47.972;7.830;2022-11-12T17:02:20;8.40;99.90
4207;DHT22;2117;47.972;7.830;2022-11-12T17:04:45;8.30;99.90
4207;DHT22;2117;47.972;7.830;2022-11-12T17:07:11;8.30;99.90
4207;DHT22;2117;47.972;7.830;2022-11-12T17:09:37;8.30;99.90
4207;DHT22;2117;47.972;7.830;2022-11-12T17:12:02;8.40;99.90
4207;DHT22;2117;47.972;7.830;2022-11-12T17:14:28;8.40;99.90
4207;DHT22;2117;47.972;7.830;2022-11-12T17:16:54;8.40;99.90
4207;DHT22;2117;47.972;7.830;2022-11-12T17:19:20;8.30;99.90
4207;DHT22;2117;47.972;7.830;2022-11-12T17:21:45;8.40;99.90
4207;DHT22;2117;47.972;7.830;2022-11-12T17:24:11;8.40;99.90
4207;DHT22;2117;47.972;7.830;2022-11-12T17:26:36;8.40;99.90
4207;DHT22;2117;47.972;7.830;2022-11-12T17:29:02;8.30;99.90
4207;DHT22;2117;47.972;7.830;2022-11-12T17:31:28;8.30;99.90
4207;DHT22;2117;47.972;7.830;2022-11-12T17:33:54;8.20;99.90
4207;DHT22;2117;47.972;7.830;2022-11-12T17:36:21;8.20;99.90
4207;DHT22;2117;47.972;7.830;2022-11-12T17:38:48;8.20;99.90
4207;DHT22;2117;47.972;7.830;2022-11-12T17:41:17;8.30;99.90
4207;DHT22;2117;47.972;7.830;2022-11-12T17:43:42;8.30;99.90
4207;DHT22;2117;47.972;7.830;2022-11-12T17:46:08;8.20;99.90
4207;DHT22;2117;47.972;7.830;2022-11-12T17:48:35;8.20;99.90
4207;DHT22;2117;47.972;7.830;2022-11-12T17:51:06;8.20;99.90
4207;DHT22;2117;47.972;7.830;2022-11-12T17:53:33;8.10;99.90
4207;DHT22;2117;47.972;7.830;2022-11-12T17:55:59;8.10;99.90
4207;DHT22;2117;47.972;7.830;2022-11-12T17:58:24;8.00;99.90
4207;DHT22;2117;47.972;7.830;2022-11-12T18:00:50;8.00;99.90
4207;DHT22;2117;47.972;7.830;2022-11-12T18:03:17;8.10;99.90
4207;DHT22;2117;47.972;7.830;2022-11-12T18:05:43;8.20;99.90
4207;DHT22;2117;47.972;7.830;2022-11-12T18:08:08;8.20;99.90
4207;DHT22;2117;47.972;7.830;2022-11-12T18:10:35;8.20;99.90
4207;DHT22;2117;47.972;7.830;2022-11-12T18:13:01;8.20;99.90
4207;DHT22;2117;47.972;7.830;2022-11-12T18:15:26;8.20;99.90
4207;DHT22;2117;47.972;7.830;2022-11-12T18:17:54;8.20;99.90
4207;DHT22;2117;47.972;7.830;2022-11-12T18:20:20;8.10;99.90
4207;DHT22;2117;47.972;7.830;2022-11-12T18:22:45;8.10;99.90
4207;DHT22;2117;47.972;7.830;2022-11-12T18:25:11;8.10;99.90
4207;DHT22;2117;47.972;7.830;2022-11-12T18:27:37;8.10;99.90
4207;DHT22;2117;47.972;7.830;2022-11-12T18:30:03;8.20;99.90
4207;DHT22;2117;47.972;7.830;2022-11-12T18:32:29;8.20;99.90
4207;DHT22;2117;47.972;7.830;2022-11-12T18:34:54;8.20;99.90
4207;DHT22;2117;47.972;7.830;2022-11-12T18:37:20;8.20;99.90
4207;DHT22;2117;47.972;7.830;2022-11-12T18:39:46;8.20;99.90
4207;DHT22;2117;47.972;7.830;2022-11-12T18:42:11;8.20;99.90
4207;DHT22;2117;47.972;7.830;2022-11-12T18:44:37;8.20;99.90
4207;DHT22;2117;47.972;7.830;2022-11-12T18:47:02;8.20;99.90
4207;DHT22;2117;47.972;7.830;2022-11-12T18:49:28;8.20;99.90
4207;DHT22;2117;47.972;7.830;2022-11-12T18:51:53;8.30;99.90
4207;DHT22;2117;47.972;7.830;2022-11-12T18:54:19;8.40;99.90
4207;DHT22;2117;47.972;7.830;2022-11-12T18:56:44;8.40;99.90
4207;DHT22;2117;47.972;7.830;2022-11-12T18:59:10;8.40;99.90
4207;DHT22;2117;47.972;7.830;2022-11-12T19:01:36;8.40;99.90
4207;DHT22;2117;47.972;7.830;2022-11-12T19:04:02;8.40;99.90
4207;DHT22;2117;47.972;7.830;2022-11-12T19:06:27;8.30;99.90
4207;DHT22;2117;47.972;7.830;2022-11-12T19:08:58;8.30;99.90
4207;DHT22;2117;47.972;7.830;2022-11-12T19:11:24;8.20;99.90
4207;DHT22;2117;47.972;7.830;2022-11-12T19:13:51;8.20;99.90
4207;DHT22;2117;47.972;7.830;2022-11-12T19:16:18;8.20;99.90
4207;DHT22;2117;47.972;7.830;2022-11-12T19:18:44;8.20;99.90
4207;DHT22;2117;47.972;7.830;2022-11-12T19:21:13;8.20;99.90
4207;DHT22;2117;47.972;7.830;2022-11-12T19:23:39;8.10;99.90
4207;DHT22;2117;47.972;7.830;2022-11-12T19:26:07;8.10;99.90
4207;DHT22;2117;47.972;7.830;2022-11-12T19:28:36;8.10;99.90
4207;DHT22;2117;47.972;7.830;2022-11-12T19:31:07;8.20;99.90
4207;DHT22;2117;47.972;7.830;2022-11-12T19:33:33;8.10;99.90
4207;DHT22;2117;47.972;7.830;2022-11-12T19:36:00;8.00;99.90
4207;DHT22;2117;47.972;7.830;2022-11-12T19:38:25;8.10;99.90
4207;DHT22;2117;47.972;7.830;2022-11-12T19:40:52;8.00;99.90
4207;DHT22;2117;47.972;7.830;2022-11-12T19:43:17;8.00;99.90
4207;DHT22;2117;47.972;7.830;2022-11-12T19:45:44;8.00;99.90
4207;DHT22;2117;47.972;7.830;2022-11-12T19:48:09;8.10;99.90
4207;DHT22;2117;47.972;7.830;2022-11-12T19:50:35;8.10;99.90
4207;DHT22;2117;47.972;7.830;2022-11-12T19:53:01;8.00;99.90
4207;DHT22;2117;47.972;7.830;2022-11-12T19:55:27;8.00;99.90
4207;DHT22;2117;47.972;7.830;2022-11-12T19:57:53;8.00;99.90
4207;DHT22;2117;47.972;7.830;2022-11-12T20:00:19;8.10;99.90
4207;DHT22;2117;47.972;7.830;2022-11-12T20:02:45;8.10;99.90
4207;DHT22;2117;47.972;7.830;2022-11-12T20:05:11;8.10;99.90
4207;DHT22;2117;47.972;7.830;2022-11-12T20:07:36;8.00;99.90
4207;DHT22;2117;47.972;7.830;2022-11-12T20:10:02;8.00;99.90
4207;DHT22;2117;47.972;7.830;2022-11-12T20:12:28;8.00;99.90
4207;DHT22;2117;47.972;7.830;2022-11-12T20:14:54;8.00;99.90
4207;DHT22;2117;47.972;7.830;2022-11-12T20:17:20;8.00;99.90
4207;DHT22;2117;47.972;7.830;2022-11-12T20:19:46;8.10;99.90
4207;DHT22;2117;47.972;7.830;2022-11-12T20:22:11;8.00;99.90
4207;DHT22;2117;47.972;7.830;2022-11-12T20:24:38;8.00;99.90
4207;DHT22;2117;47.972;7.830;2022-11-12T20:27:03;8.00;99.90
4207;DHT22;2117;47.972;7.830;2022-11-12T20:29:30;7.90;99.90
4207;DHT22;2117;47.972;7.830;2022-11-12T20:31:56;7.90;99.90
4207;DHT22;2117;47.972;7.830;2022-11-12T20:34:21;8.10;99.90
4207;DHT22;2117;47.972;7.830;2022-11-12T20:36:47;8.00;99.90
4207;DHT22;2117;47.972;7.830;2022-11-12T20:39:12;7.90;99.90
4207;DHT22;2117;47.972;7.830;2022-11-12T20:41:38;7.80;99.90
4207;DHT22;2117;47.972;7.830;2022-11-12T20:44:04;7.80;99.90
4207;DHT22;2117;47.972;7.830;2022-11-12T20:46:29;7.80;99.90
4207;DHT22;2117;47.972;7.830;2022-11-12T20:48:55;7.70;99.90